Time;durP1;ratioP1;P1;durP2;ratioP2;P2;SDS_P1;SDS_P2;PMS_P1;PMS_P2;Temp;Humidity;BMP_temperature;BMP_pressure;BME280_temperature;BME280_humidity;BME280_pressure;Samples;Min_cycle;Max_cycle;Signal;HPM_P1;HPM_P2
2022/04/18 00:00:18;;;;;;;33.55;23.88;;;27.30;99.90;;;;;;5015104;28;20081;-65
2022/04/18 00:02:45;;;;;;;36.00;25.08;;;27.30;99.90;;;;;;5015075;28;20032;-64
2022/04/18 00:05:12;;;;;;;31.40;23.35;;;27.30;99.90;;;;;;5015027;28;20014;-67
2022/04/18 00:07:38;;;;;;;39.10;24.88;;;27.40;99.90;;;;;;5008490;28;20084;-63
2022/04/18 00:10:05;;;;;;;34.83;24.40;;;27.40;99.90;;;;;;5012674;28;20109;-67
2022/04/18 00:12:33;;;;;;;38.33;26.45;;;27.40;99.90;;;;;;4998050;28;20025;-63
2022/04/18 00:15:00;;;;;;;43.30;26.73;;;27.40;99.90;;;;;;5010064;28;20029;-62
2022/04/18 00:17:27;;;;;;;38.15;25.85;;;27.30;99.90;;;;;;5014473;28;20034;-66
2022/04/18 00:19:54;;;;;;;36.83;26.67;;;27.30;99.90;;;;;;5014517;28;20049;-66
2022/04/18 00:22:23;;;;;;;35.35;23.73;;;27.30;99.90;;;;;;5013223;28;20109;-67
2022/04/18 00:24:50;;;;;;;33.13;24.52;;;27.30;99.90;;;;;;5014744;28;20057;-66
2022/04/18 00:27:17;;;;;;;30.75;24.58;;;27.40;99.90;;;;;;5014441;28;20450;-66
2022/04/18 00:29:44;;;;;;;35.92;26.05;;;27.50;99.90;;;;;;5014229;28;20022;-63
2022/04/18 00:32:11;;;;;;;41.00;31.23;;;27.50;99.90;;;;;;5007763;28;20034;-63
2022/04/18 00:34:37;;;;;;;44.35;31.08;;;27.50;99.90;;;;;;5014300;28;20076;-64
2022/04/18 00:37:04;;;;;;;43.42;34.20;;;27.50;99.90;;;;;;5014241;28;20026;-65
2022/04/18 00:39:31;;;;;;;53.75;36.17;;;27.50;99.90;;;;;;5014153;28;20029;-67
2022/04/18 00:41:58;;;;;;;43.85;30.13;;;27.50;99.90;;;;;;4996798;28;20034;-65
2022/04/18 00:44:25;;;;;;;40.90;29.83;;;27.60;99.90;;;;;;5014336;28;20030;-65
2022/04/18 00:46:52;;;;;;;35.60;25.92;;;27.70;99.90;;;;;;5013884;28;20479;-65
2022/04/18 00:49:18;;;;;;;36.42;25.83;;;27.70;99.90;;;;;;5013980;28;20076;-64
2022/04/18 00:51:45;;;;;;;36.60;27.42;;;27.70;99.90;;;;;;5013884;28;20030;-67
2022/04/18 00:54:13;;;;;;;33.17;25.50;;;27.80;99.90;;;;;;5013862;28;20048;-65
2022/04/18 00:56:40;;;;;;;39.10;26.42;;;27.90;99.90;;;;;;5014085;28;20022;-65
2022/04/18 00:59:08;;;;;;;37.53;26.58;;;28.00;99.90;;;;;;5014079;28;20053;-65
2022/04/18 01:01:37;;;;;;;34.05;25.23;;;28.00;99.90;;;;;;5013995;28;20036;-64
2022/04/18 01:04:05;;;;;;;35.58;25.23;;;28.10;99.90;;;;;;5013808;28;20025;-66
2022/04/18 01:06:33;;;;;;;35.88;26.30;;;28.10;99.90;;;;;;5013882;28;20026;-64
2022/04/18 01:09:01;;;;;;;36.88;27.23;;;28.20;99.90;;;;;;5013431;28;20461;-63
2022/04/18 01:11:28;;;;;;;32.08;26.10;;;28.10;99.90;;;;;;5013982;28;20054;-66
2022/04/18 01:13:55;;;;;;;36.22;24.90;;;28.20;99.90;;;;;;5013892;28;20041;-64
2022/04/18 01:16:22;;;;;;;42.80;29.80;;;28.20;99.90;;;;;;5013987;28;20049;-66
2022/04/18 01:18:49;;;;;;;43.55;29.23;;;28.30;99.90;;;;;;5013936;28;20144;-65
2022/04/18 01:21:19;;;;;;;42.00;32.40;;;28.30;99.90;;;;;;5013649;28;20101;-67
2022/04/18 01:23:47;;;;;;;37.55;31.75;;;28.30;99.90;;;;;;5013500;28;20509;-67
2022/04/18 01:29:03;;;;;;;46.33;35.17;;;28.30;99.90;;;;;;5013775;28;20029;-67
2022/04/18 01:31:31;;;;;;;48.35;37.22;;;28.30;99.90;;;;;;5013345;28;20030;-66
2022/04/18 01:33:59;;;;;;;40.45;34.03;;;28.30;99.90;;;;;;5013207;28;20065;-64
2022/04/18 01:36:27;;;;;;;57.88;46.80;;;28.40;99.90;;;;;;5013329;28;20034;-65
2022/04/18 01:38:54;;;;;;;54.03;43.08;;;28.40;99.90;;;;;;5013375;28;20029;-65
2022/04/18 01:41:21;;;;;;;56.22;44.03;;;28.50;99.90;;;;;;5013001;28;20360;-65
2022/04/18 01:43:48;;;;;;;55.97;39.80;;;28.60;99.90;;;;;;5013081;28;20038;-65
2022/04/18 01:46:16;;;;;;;49.40;41.30;;;28.70;99.90;;;;;;5013199;28;20030;-65
2022/04/18 01:48:43;;;;;;;47.88;41.92;;;28.70;99.90;;;;;;5011716;28;20026;-65
2022/04/18 01:51:10;;;;;;;51.38;43.20;;;28.80;99.90;;;;;;5013641;28;20026;-65
2022/04/18 01:53:37;;;;;;;49.03;41.28;;;28.70;99.90;;;;;;5011788;28;20026;-65
2022/04/18 01:56:03;;;;;;;52.35;41.60;;;28.80;99.90;;;;;;5012112;28;20137;-66
2022/04/18 01:58:30;;;;;;;60.10;44.83;;;28.90;99.90;;;;;;5013157;28;20053;-65
2022/04/18 02:00:57;;;;;;;52.83;47.03;;;28.90;99.90;;;;;;5010902;28;20505;-64
2022/04/18 02:03:23;;;;;;;56.25;47.22;;;28.80;99.90;;;;;;5011229;28;20037;-65
2022/04/18 02:05:52;;;;;;;62.63;49.13;;;28.70;99.90;;;;;;5012987;28;20029;-67
2022/04/18 02:08:19;;;;;;;72.75;58.03;;;28.80;99.90;;;;;;5013259;28;20018;-65
2022/04/18 02:10:47;;;;;;;64.25;53.42;;;28.80;99.90;;;;;;5012511;28;20030;-66
2022/04/18 02:13:14;;;;;;;59.50;51.80;;;29.00;99.90;;;;;;5013232;28;20022;-65
2022/04/18 02:15:42;;;;;;;66.47;55.13;;;29.10;99.90;;;;;;5013257;28;20065;-66
2022/04/18 02:18:09;;;;;;;62.00;52.60;;;29.30;99.90;;;;;;5012757;28;20356;-64
2022/04/18 02:20:36;;;;;;;67.70;54.90;;;29.40;99.90;;;;;;5012583;28;20026;-64
2022/04/18 02:23:03;;;;;;;82.03;62.88;;;29.50;99.90;;;;;;5005479;28;20025;-65
2022/04/18 02:25:30;;;;;;;97.45;76.63;;;29.50;99.90;;;;;;5013011;28;20387;-65
2022/04/18 02:27:57;;;;;;;94.95;76.90;;;29.50;99.90;;;;;;5012585;28;20022;-64
2022/04/18 02:30:24;;;;;;;94.30;73.95;;;29.40;99.90;;;;;;5012490;28;20108;-65
2022/04/18 02:32:51;;;;;;;98.75;75.47;;;29.40;99.90;;;;;;5011343;28;20110;-67
2022/04/18 02:35:22;;;;;;;95.32;73.32;;;29.50;99.90;;;;;;5012701;28;20510;-65
2022/04/18 02:37:49;;;;;;;100.22;72.47;;;29.50;99.90;;;;;;5016426;28;20025;-65
2022/04/18 02:40:16;;;;;;;90.80;70.55;;;29.60;99.90;;;;;;5016749;28;20101;-64
2022/04/18 02:42:44;;;;;;;98.43;76.25;;;29.70;99.90;;;;;;5016498;28;20030;-65
2022/04/18 02:45:14;;;;;;;109.65;82.65;;;29.80;99.90;;;;;;5016742;28;20036;-65
2022/04/18 02:47:40;;;;;;;116.05;86.07;;;29.80;99.90;;;;;;5033297;28;20121;-65
2022/04/18 02:50:08;;;;;;;112.47;86.95;;;29.80;99.90;;;;;;5036320;28;20417;-68
2022/04/18 02:52:35;;;;;;;115.30;82.22;;;29.80;99.90;;;;;;5023750;28;20028;-65
2022/04/18 02:55:02;;;;;;;130.23;89.20;;;29.80;99.90;;;;;;5016566;28;20468;-67
2022/04/18 02:57:28;;;;;;;135.52;91.22;;;29.70;99.90;;;;;;5015947;28;20521;-64
2022/04/18 02:59:55;;;;;;;117.43;86.75;;;29.70;99.90;;;;;;5015899;28;20498;-65
2022/04/18 03:02:22;;;;;;;106.50;81.30;;;29.70;99.90;;;;;;5016123;28;20112;-65
2022/04/18 03:04:48;;;;;;;110.38;81.40;;;29.60;99.90;;;;;;5033904;28;20030;-67
2022/04/18 03:07:15;;;;;;;105.28;77.80;;;29.60;99.90;;;;;;5028050;28;20034;-65
2022/04/18 03:09:42;;;;;;;108.13;81.20;;;29.70;99.90;;;;;;5015234;28;20025;-66
2022/04/18 03:12:09;;;;;;;104.05;80.97;;;29.60;99.90;;;;;;5015987;28;20591;-65
2022/04/18 03:14:36;;;;;;;109.93;82.85;;;29.50;99.90;;;;;;5021708;28;20123;-65
2022/04/18 03:17:03;;;;;;;107.90;79.15;;;29.50;99.90;;;;;;5013311;28;20488;-66
2022/04/18 03:19:31;;;;;;;122.95;83.10;;;29.50;99.90;;;;;;5012151;28;20042;-66
2022/04/18 03:21:59;;;;;;;110.30;81.03;;;29.40;99.90;;;;;;5011055;28;20386;-67
2022/04/18 03:24:26;;;;;;;110.45;80.25;;;29.40;99.90;;;;;;5011240;28;20398;-67
2022/04/18 03:26:52;;;;;;;115.57;79.70;;;29.40;99.90;;;;;;5010673;28;20030;-65
2022/04/18 03:29:19;;;;;;;106.43;74.93;;;29.40;99.90;;;;;;5007099;28;20030;-65
2022/04/18 03:31:46;;;;;;;125.38;82.75;;;29.40;99.90;;;;;;5015955;28;20022;-64
2022/04/18 03:34:12;;;;;;;107.57;76.75;;;29.40;99.90;;;;;;5011749;28;20117;-65
2022/04/18 03:42:12;;;;;;;76.18;52.90;;;29.40;99.90;;;;;;5014212;28;20034;-64
2022/04/18 03:44:49;;;;;;;71.22;51.58;;;29.30;99.90;;;;;;5014314;28;20029;-64
2022/04/18 03:47:16;;;;;;;67.53;50.25;;;29.30;99.90;;;;;;5014398;28;20510;-64
2022/04/18 03:49:43;;;;;;;70.85;49.88;;;29.20;99.90;;;;;;5015071;28;20034;-65
2022/04/18 03:52:10;;;;;;;66.15;46.00;;;29.10;99.90;;;;;;5014394;28;20029;-65
2022/04/18 03:54:36;;;;;;;63.88;45.95;;;29.10;99.90;;;;;;5013581;28;20018;-65
2022/04/18 03:57:03;;;;;;;77.93;54.97;;;29.20;99.90;;;;;;5017382;28;20041;-64
2022/04/18 03:59:31;;;;;;;97.18;66.38;;;29.20;99.90;;;;;;5015392;28;20025;-64
2022/04/18 04:01:57;;;;;;;80.45;55.97;;;29.10;99.90;;;;;;5014745;28;20109;-64
2022/04/18 04:04:25;;;;;;;65.53;48.83;;;29.00;99.90;;;;;;5014936;28;20482;-66
2022/04/18 04:06:51;;;;;;;45.80;33.72;;;28.90;99.90;;;;;;5007785;28;20588;-64
2022/04/18 04:09:18;;;;;;;38.53;28.20;;;28.80;99.90;;;;;;5013769;28;20053;-64
2022/04/18 04:11:45;;;;;;;28.75;24.75;;;28.70;99.90;;;;;;5011611;28;20029;-67
2022/04/18 04:14:11;;;;;;;33.75;27.10;;;28.70;99.90;;;;;;5014355;28;20030;-64
2022/04/18 04:16:38;;;;;;;33.92;26.38;;;28.60;99.90;;;;;;5013869;28;20026;-64
2022/04/18 04:19:06;;;;;;;33.03;25.27;;;28.60;99.90;;;;;;5014438;28;20033;-65
2022/04/18 04:21:35;;;;;;;27.88;24.48;;;28.70;99.90;;;;;;5014447;28;20098;-65
2022/04/18 04:24:02;;;;;;;31.15;25.20;;;28.70;99.90;;;;;;5014394;28;20483;-63
2022/04/18 04:26:30;;;;;;;25.88;23.15;;;28.70;99.90;;;;;;5014237;28;20059;-67
2022/04/18 04:28:56;;;;;;;30.30;25.35;;;28.70;99.90;;;;;;5014276;28;20033;-64
2022/04/18 04:31:23;;;;;;;32.65;26.98;;;28.70;99.90;;;;;;5014665;28;20024;-63
2022/04/18 04:33:50;;;;;;;44.65;32.22;;;28.80;99.90;;;;;;5014084;28;20037;-62
2022/04/18 04:36:17;;;;;;;43.33;33.03;;;28.70;99.90;;;;;;5012341;28;20042;-67
2022/04/18 04:38:44;;;;;;;41.30;32.28;;;28.70;99.90;;;;;;5009955;28;20026;-64
2022/04/18 04:41:11;;;;;;;47.70;33.58;;;28.80;99.90;;;;;;5017602;28;20148;-67
2022/04/18 04:43:39;;;;;;;45.08;35.03;;;28.80;99.90;;;;;;5002633;28;20030;-66
2022/04/18 04:46:06;;;;;;;48.83;37.70;;;28.80;99.90;;;;;;4996035;28;20034;-65
2022/04/18 04:48:33;;;;;;;45.22;33.60;;;28.80;99.90;;;;;;5016271;23;20502;-65
2022/04/18 04:51:00;;;;;;;48.35;35.10;;;28.90;99.90;;;;;;5014118;28;20153;-63
2022/04/18 04:53:27;;;;;;;41.83;34.95;;;28.90;99.90;;;;;;5011259;28;20398;-64
2022/04/18 04:55:54;;;;;;;64.63;42.35;;;29.10;99.90;;;;;;5008188;28;20030;-68
2022/04/18 04:58:21;;;;;;;65.88;46.03;;;29.10;99.90;;;;;;5014002;28;20026;-65
2022/04/18 05:00:48;;;;;;;54.10;41.17;;;29.10;99.90;;;;;;5013704;28;20121;-64
2022/04/18 05:03:16;;;;;;;48.13;38.53;;;29.10;99.90;;;;;;5014014;28;20060;-65
2022/04/18 05:05:43;;;;;;;41.47;34.88;;;29.10;99.90;;;;;;5014367;28;20018;-67
2022/04/18 05:08:10;;;;;;;39.97;32.95;;;29.10;99.90;;;;;;5013133;28;20034;-66
2022/04/18 05:10:36;;;;;;;38.80;32.47;;;29.20;99.90;;;;;;5014700;28;20073;-66
2022/04/18 05:13:03;;;;;;;48.55;35.55;;;29.10;99.90;;;;;;5013994;28;20601;-65
2022/04/18 05:15:31;;;;;;;41.08;32.58;;;29.20;99.90;;;;;;5014659;28;20037;-65
2022/04/18 05:17:58;;;;;;;35.60;30.30;;;29.30;99.90;;;;;;5011532;28;20160;-65
2022/04/18 05:20:24;;;;;;;36.38;30.63;;;29.40;99.90;;;;;;5014017;28;20014;-65
2022/04/18 05:22:51;;;;;;;31.30;27.92;;;29.50;99.90;;;;;;5014281;28;20029;-66
2022/04/18 05:25:18;;;;;;;31.90;28.02;;;29.50;99.90;;;;;;5014270;28;20381;-65
2022/04/18 05:27:44;;;;;;;25.55;22.88;;;29.60;99.90;;;;;;5008424;28;20046;-64
2022/04/18 05:30:11;;;;;;;31.02;25.85;;;29.60;99.90;;;;;;5010384;28;20053;-66
2022/04/18 05:32:38;;;;;;;43.88;34.83;;;29.70;99.90;;;;;;5012323;28;20022;-65
2022/04/18 05:35:06;;;;;;;49.10;37.45;;;29.80;99.90;;;;;;5013415;28;20041;-64
2022/04/18 05:37:32;;;;;;;47.25;35.10;;;29.90;99.90;;;;;;5013891;28;20033;-65
2022/04/18 05:39:59;;;;;;;42.50;33.78;;;29.90;99.90;;;;;;5013877;28;20022;-64
2022/04/18 05:42:26;;;;;;;39.15;30.95;;;30.00;99.90;;;;;;5010796;28;20026;-64
2022/04/18 05:44:52;;;;;;;42.40;29.85;;;30.00;99.90;;;;;;5005551;28;20034;-63
2022/04/18 05:47:19;;;;;;;34.95;26.05;;;30.10;99.90;;;;;;5006906;28;20399;-63
2022/04/18 05:49:46;;;;;;;32.63;25.70;;;30.20;99.90;;;;;;5012274;28;20395;-63
2022/04/18 05:52:15;;;;;;;33.72;26.83;;;30.40;99.90;;;;;;5006504;28;20037;-64
2022/04/18 05:54:43;;;;;;;38.88;27.02;;;30.40;99.90;;;;;;5010859;28;20033;-64
2022/04/18 05:57:10;;;;;;;36.35;26.52;;;30.50;99.90;;;;;;5009422;28;20038;-63
2022/04/18 05:59:37;;;;;;;34.05;25.02;;;30.60;99.90;;;;;;5009188;28;20030;-64
2022/04/18 06:02:04;;;;;;;28.10;24.13;;;30.60;99.90;;;;;;5006338;28;20045;-67
2022/04/18 06:04:30;;;;;;;26.80;22.75;;;30.70;99.90;;;;;;5007611;28;20537;-65
2022/04/18 06:06:57;;;;;;;31.40;24.88;;;30.80;99.90;;;;;;5001788;28;20050;-64
2022/04/18 06:09:24;;;;;;;29.02;25.40;;;30.90;99.90;;;;;;5012565;28;20029;-66
2022/04/18 06:11:51;;;;;;;34.08;24.60;;;31.00;99.90;;;;;;5015326;28;20354;-63
2022/04/18 06:14:18;;;;;;;32.03;24.67;;;31.00;99.90;;;;;;5016877;28;20022;-65
2022/04/18 06:16:44;;;;;;;34.72;28.63;;;31.00;99.90;;;;;;5016828;28;20045;-66
2022/04/18 06:19:11;;;;;;;44.33;35.03;;;31.10;99.90;;;;;;5013895;28;20210;-65
2022/04/18 06:21:38;;;;;;;44.45;33.88;;;31.20;99.90;;;;;;5014227;28;20390;-67
2022/04/18 06:24:05;;;;;;;46.63;34.20;;;31.30;99.90;;;;;;5016403;28;20072;-69
2022/04/18 06:26:32;;;;;;;23.10;19.65;;;31.40;99.90;;;;;;5016298;28;20054;-67
2022/04/18 06:28:58;;;;;;;20.52;18.02;;;31.40;99.90;;;;;;5014192;28;20061;-66
2022/04/18 06:31:25;;;;;;;25.08;20.52;;;31.30;99.90;;;;;;5015716;28;20109;-67
2022/04/18 06:33:52;;;;;;;19.75;17.65;;;31.20;99.90;;;;;;5013082;28;20030;-64
2022/04/18 06:36:19;;;;;;;20.92;16.02;;;31.20;99.90;;;;;;5013444;28;20025;-65
2022/04/18 06:38:46;;;;;;;18.75;14.57;;;31.20;99.90;;;;;;5015926;28;20033;-64
2022/04/18 06:41:12;;;;;;;16.70;13.50;;;31.10;99.90;;;;;;5011117;28;20049;-63
2022/04/18 06:43:39;;;;;;;15.93;12.95;;;31.10;99.90;;;;;;5015767;28;20040;-62
2022/04/18 06:46:06;;;;;;;14.65;12.98;;;31.00;99.90;;;;;;5013470;28;20085;-63
2022/04/18 06:48:33;;;;;;;17.73;14.25;;;31.00;99.90;;;;;;5011718;28;20030;-62
2022/04/18 06:50:59;;;;;;;14.50;12.93;;;30.90;99.90;;;;;;5013630;28;20479;-64
2022/04/18 06:53:26;;;;;;;15.00;11.35;;;30.90;99.90;;;;;;5015062;28;20478;-64
2022/04/18 06:58:39;;;;;;;17.65;12.52;;;30.80;99.90;;;;;;5016221;28;20541;-63
2022/04/18 07:01:06;;;;;;;14.32;12.27;;;30.90;99.90;;;;;;5013949;28;20127;-64
2022/04/18 07:03:33;;;;;;;16.95;12.82;;;30.90;99.90;;;;;;5011921;28;20061;-63
2022/04/18 07:06:00;;;;;;;14.32;12.82;;;30.90;99.90;;;;;;5011639;28;20037;-64
2022/04/18 07:08:26;;;;;;;14.60;11.88;;;30.90;99.90;;;;;;5014645;28;20029;-64
2022/04/18 07:10:53;;;;;;;15.20;12.25;;;31.00;99.90;;;;;;5012974;28;20041;-65
2022/04/18 07:13:20;;;;;;;15.70;12.00;;;31.00;99.90;;;;;;5015406;28;20243;-66
2022/04/18 07:15:46;;;;;;;13.57;11.55;;;31.00;99.90;;;;;;5014276;28;20030;-63
2022/04/18 07:18:13;;;;;;;15.05;10.70;;;31.00;99.90;;;;;;5013784;28;20022;-63
2022/04/18 07:20:41;;;;;;;13.02;10.88;;;31.10;99.90;;;;;;5012599;28;20022;-63
2022/04/18 07:23:08;;;;;;;15.60;11.75;;;31.20;99.90;;;;;;5008906;28;20038;-63
2022/04/18 07:25:35;;;;;;;13.55;11.20;;;31.20;99.90;;;;;;5010802;28;20030;-62
2022/04/18 07:28:01;;;;;;;13.15;11.73;;;31.30;99.90;;;;;;5008690;28;20041;-63
2022/04/18 07:30:30;;;;;;;15.23;12.13;;;31.30;99.90;;;;;;5012229;28;20026;-64
2022/04/18 07:32:56;;;;;;;14.15;12.60;;;31.40;99.90;;;;;;5010775;28;20034;-64
2022/04/18 07:35:23;;;;;;;14.23;11.88;;;31.50;99.90;;;;;;5012615;28;20038;-64
2022/04/18 07:40:36;;;;;;;13.55;11.77;;;31.60;99.90;;;;;;5013940;28;20031;-66
2022/04/18 07:43:03;;;;;;;16.73;13.63;;;31.60;99.90;;;;;;5014360;28;20021;-63
2022/04/18 07:45:30;;;;;;;25.80;14.25;;;31.70;99.90;;;;;;5012324;28;20403;-66
2022/04/18 07:47:57;;;;;;;15.73;13.57;;;31.70;99.90;;;;;;5013676;28;20105;-63
2022/04/18 07:51:31;;;;;;;19.98;13.82;;;31.70;99.90;;;;;;5012811;28;20050;-65
2022/04/18 07:53:10;;;;;;;17.20;12.43;;;31.80;99.90;;;;;;5014319;28;20041;-64
2022/04/18 07:55:36;;;;;;;13.40;10.70;;;31.80;99.90;;;;;;5012727;28;20076;-65
2022/04/18 07:58:03;;;;;;;11.15;10.05;;;31.90;99.90;;;;;;5009107;28;20049;-64
2022/04/18 08:00:30;;;;;;;10.35;9.35;;;31.90;99.90;;;;;;5013704;28;20025;-64
2022/04/18 08:02:56;;;;;;;9.70;8.70;;;31.90;99.90;;;;;;5013065;28;20110;-67
2022/04/18 08:05:23;;;;;;;10.98;9.35;;;31.90;99.90;;;;;;5013551;28;20052;-64
2022/04/18 08:07:50;;;;;;;11.38;9.95;;;31.90;99.90;;;;;;5012340;28;20029;-65
2022/04/18 08:10:17;;;;;;;12.70;10.50;;;31.90;99.90;;;;;;5013573;28;20014;-64
2022/04/18 08:12:43;;;;;;;13.45;10.90;;;31.90;99.90;;;;;;5009357;28;20038;-66
2022/04/18 08:15:10;;;;;;;19.00;11.50;;;31.90;99.90;;;;;;5012549;28;20160;-64
2022/04/18 08:17:37;;;;;;;17.30;11.77;;;31.80;99.90;;;;;;5014470;28;20037;-64
2022/04/18 08:20:04;;;;;;;13.88;10.77;;;31.80;99.90;;;;;;5010505;28;20391;-64
2022/04/18 08:22:31;;;;;;;12.90;10.15;;;31.80;99.90;;;;;;5006201;28;20041;-63
2022/04/18 08:24:58;;;;;;;10.95;9.45;;;31.80;99.90;;;;;;5014513;28;20479;-68
2022/04/18 08:27:24;;;;;;;12.88;10.02;;;31.80;99.90;;;;;;5013751;28;20033;-67
2022/04/18 08:29:51;;;;;;;11.00;9.25;;;31.70;99.90;;;;;;5013877;28;20479;-64
2022/04/18 08:32:18;;;;;;;11.95;9.68;;;31.70;99.90;;;;;;5012720;28;20029;-64
2022/04/18 08:34:44;;;;;;;11.77;9.52;;;31.70;99.90;;;;;;5013989;28;20057;-65
2022/04/18 08:37:11;;;;;;;10.38;8.20;;;31.70;99.90;;;;;;5014011;28;20030;-67
2022/04/18 08:39:38;;;;;;;11.63;9.27;;;31.70;99.90;;;;;;5012243;28;20034;-65
2022/04/18 08:42:06;;;;;;;11.30;9.52;;;31.70;99.90;;;;;;5006194;28;20029;-64
2022/04/18 08:44:34;;;;;;;10.75;9.65;;;31.70;99.90;;;;;;5010485;28;20371;-64
2022/04/18 08:47:01;;;;;;;21.08;11.35;;;31.60;99.90;;;;;;5007164;28;20026;-63
2022/04/18 08:55:03;;;;;;;14.02;12.48;;;31.60;99.90;;;;;;5011735;28;20037;-65
2022/04/18 08:57:29;;;;;;;31.27;21.42;;;31.50;99.90;;;;;;5009422;28;20379;-64
2022/04/18 08:59:56;;;;;;;19.35;14.95;;;31.50;99.90;;;;;;5010404;28;20030;-63
2022/04/18 09:02:26;;;;;;;13.70;12.30;;;31.50;99.90;;;;;;5010850;28;20099;-63
2022/04/18 09:04:54;;;;;;;14.38;12.40;;;31.50;99.90;;;;;;5012710;28;20549;-63
2022/04/18 09:07:20;;;;;;;13.57;11.60;;;31.40;99.90;;;;;;5006238;28;20761;-64
2022/04/18 09:09:53;;;;;;;20.25;12.63;;;31.40;99.90;;;;;;5012833;28;20256;-64
2022/04/18 09:12:27;;;;;;;21.65;16.10;;;31.30;99.90;;;;;;5009528;28;20030;-64
2022/04/18 09:14:54;;;;;;;31.67;23.60;;;31.30;99.90;;;;;;5011045;28;20069;-64
2022/04/18 09:17:32;;;;;;;22.10;16.13;;;31.30;99.90;;;;;;5008829;28;20022;-64
2022/04/18 09:20:10;;;;;;;20.63;18.48;;;31.30;99.90;;;;;;5010113;28;20038;-64
2022/04/18 09:22:56;;;;;;;61.15;47.97;;;31.20;99.90;;;;;;5009893;28;20030;-64
2022/04/18 09:25:23;;;;;;;44.20;38.33;;;31.20;99.90;;;;;;5009919;28;20061;-64
2022/04/18 09:27:53;;;;;;;36.63;31.80;;;31.10;99.90;;;;;;5008203;28;20560;-64
2022/04/18 09:30:20;;;;;;;49.20;34.78;;;31.10;99.90;;;;;;5010549;28;20063;-64
2022/04/18 09:32:57;;;;;;;45.60;35.08;;;31.00;99.90;;;;;;5008981;28;20097;-63
2022/04/18 09:35:26;;;;;;;29.15;21.00;;;31.00;99.90;;;;;;5012047;28;20045;-65
2022/04/18 09:37:53;;;;;;;18.67;14.88;;;31.00;99.90;;;;;;5012115;28;20102;-67
2022/04/18 09:40:24;;;;;;;22.17;13.75;;;30.90;99.90;;;;;;5009941;28;20117;-63
2022/04/18 09:42:53;;;;;;;20.10;15.00;;;30.90;99.90;;;;;;5011481;28;20040;-64
2022/04/18 09:45:20;;;;;;;23.73;17.33;;;30.90;99.90;;;;;;5009727;28;20052;-64
2022/04/18 09:47:54;;;;;;;27.27;20.80;;;30.90;99.90;;;;;;5017580;28;20479;-63
2022/04/18 09:53:22;;;;;;;15.20;12.52;;;30.80;99.90;;;;;;5014931;28;20022;-64
2022/04/18 09:55:52;;;;;;;28.13;19.02;;;30.70;99.90;;;;;;5019284;28;20402;-63
2022/04/18 09:58:19;;;;;;;28.98;20.27;;;30.70;99.90;;;;;;5017489;28;20121;-63
2022/04/18 10:00:47;;;;;;;38.67;26.60;;;30.60;99.90;;;;;;5017319;28;20483;-67
2022/04/18 10:03:14;;;;;;;32.25;22.80;;;30.60;99.90;;;;;;5013732;28;20532;-66
2022/04/18 10:05:41;;;;;;;41.50;31.65;;;30.60;99.90;;;;;;5011982;28;20029;-69
2022/04/18 10:08:08;;;;;;;61.45;30.70;;;30.60;99.90;;;;;;5017127;28;20045;-67
2022/04/18 10:10:36;;;;;;;45.83;31.35;;;30.50;99.90;;;;;;5017411;28;20045;-66
2022/04/18 10:13:04;;;;;;;36.13;23.70;;;30.50;99.90;;;;;;5016031;28;20076;-67
2022/04/18 10:15:31;;;;;;;48.60;30.25;;;30.40;99.90;;;;;;5014327;28;20037;-68
2022/04/18 10:18:02;;;;;;;54.28;33.45;;;30.40;99.90;;;;;;5010013;28;20489;-69
2022/04/18 10:20:48;;;;;;;56.15;34.42;;;30.40;99.90;;;;;;5016362;28;20029;-68
2022/04/18 10:23:41;;;;;;;66.18;44.00;;;30.40;99.90;;;;;;5016513;28;20101;-67
2022/04/18 10:26:34;;;;;;;44.22;32.53;;;30.40;99.90;;;;;;4997509;28;20036;-67
2022/04/18 10:29:08;;;;;;;41.90;26.23;;;30.30;99.90;;;;;;5014144;28;20552;-67
2022/04/18 10:31:39;;;;;;;44.58;24.63;;;30.20;99.90;;;;;;5010757;28;20110;-65
2022/04/18 10:34:08;;;;;;;33.28;22.15;;;30.10;99.90;;;;;;5014925;28;20032;-68
2022/04/18 10:36:35;;;;;;;32.35;19.95;;;30.10;99.90;;;;;;5015717;28;20395;-66
2022/04/18 10:39:06;;;;;;;35.75;21.20;;;30.10;99.90;;;;;;5014398;28;20471;-64
2022/04/18 10:41:36;;;;;;;31.35;19.50;;;30.10;99.90;;;;;;5013427;28;20064;-63
2022/04/18 10:44:08;;;;;;;33.05;20.90;;;30.00;99.90;;;;;;5012861;28;20026;-63
2022/04/18 10:46:38;;;;;;;43.58;26.38;;;30.00;99.90;;;;;;5012699;28;20022;-65
2022/04/18 10:49:16;;;;;;;29.92;19.88;;;29.90;99.90;;;;;;5012018;28;20022;-65
2022/04/18 10:51:45;;;;;;;35.38;19.20;;;29.80;99.90;;;;;;5013497;28;20517;-65
2022/04/18 10:54:16;;;;;;;22.90;16.83;;;29.80;99.90;;;;;;5013348;28;20029;-64
2022/04/18 10:57:13;;;;;;;23.40;16.00;;;29.80;99.90;;;;;;5010742;28;20026;-63
2022/04/18 10:59:42;;;;;;;30.50;20.83;;;29.70;99.90;;;;;;5014139;28;20093;-63
2022/04/18 11:02:30;;;;;;;40.90;27.17;;;29.60;99.90;;;;;;5012256;28;20025;-62
2022/04/18 11:04:56;;;;;;;44.63;24.70;;;29.60;99.90;;;;;;5014462;28;20068;-63
2022/04/18 11:07:40;;;;;;;35.45;22.02;;;29.60;99.90;;;;;;5015443;28;20042;-64
2022/04/18 11:10:28;;;;;;;38.53;21.33;;;29.60;99.90;;;;;;5002715;28;20019;-63
2022/04/18 11:13:01;;;;;;;35.47;21.77;;;29.50;99.90;;;;;;4999525;28;20034;-64
2022/04/18 11:15:28;;;;;;;39.08;22.42;;;29.50;99.90;;;;;;5015225;28;20053;-64
2022/04/18 11:18:00;;;;;;;32.17;19.15;;;29.50;99.90;;;;;;5016136;28;20029;-63
2022/04/18 11:20:31;;;;;;;36.05;18.85;;;29.40;99.90;;;;;;5014879;28;20022;-66
2022/04/18 11:23:19;;;;;;;23.75;17.77;;;29.40;99.90;;;;;;5016327;28;20395;-63
2022/04/18 11:26:04;;;;;;;25.10;16.90;;;29.30;99.90;;;;;;5017870;28;20044;-63
2022/04/18 11:28:41;;;;;;;45.63;28.52;;;29.20;99.90;;;;;;5016412;28;20176;-64
2022/04/18 11:31:21;;;;;;;28.55;18.25;;;29.10;99.90;;;;;;5000804;28;20033;-63
2022/04/18 11:33:48;;;;;;;25.52;14.85;;;29.10;99.90;;;;;;4996548;28;20026;-64
2022/04/18 11:36:15;;;;;;;22.73;13.32;;;29.00;99.90;;;;;;5014103;28;20026;-64
2022/04/18 11:38:42;;;;;;;20.10;12.98;;;28.80;99.90;;;;;;5015665;28;20026;-63
2022/04/18 11:41:18;;;;;;;20.85;12.98;;;28.80;99.90;;;;;;5015098;28;20521;-64
2022/04/18 11:43:45;;;;;;;18.85;13.02;;;28.80;99.90;;;;;;5012737;28;20080;-64
2022/04/18 11:46:12;;;;;;;17.73;12.50;;;28.80;99.90;;;;;;5010575;28;20033;-62
2022/04/18 11:48:39;;;;;;;17.42;11.80;;;28.70;99.90;;;;;;5011504;28;20483;-63
2022/04/18 11:51:06;;;;;;;21.83;11.85;;;28.60;99.90;;;;;;5015967;28;20038;-65
2022/04/18 11:53:34;;;;;;;16.00;11.50;;;28.50;99.90;;;;;;5010304;28;20464;-63
2022/04/18 11:56:04;;;;;;;18.85;11.23;;;28.50;99.90;;;;;;5005553;28;20060;-63
2022/04/18 11:58:36;;;;;;;26.02;11.52;;;28.40;99.90;;;;;;4995801;28;20026;-63
2022/04/18 12:06:49;;;;;;;19.77;13.52;;;28.20;99.90;;;;;;5004618;28;20034;-65
2022/04/18 12:09:21;;;;;;;18.23;12.80;;;28.20;99.90;;;;;;5005233;28;20037;-63
2022/04/18 12:11:47;;;;;;;21.73;12.83;;;28.20;99.90;;;;;;5015472;28;20026;-63
2022/04/18 12:14:14;;;;;;;18.52;14.68;;;28.30;99.90;;;;;;5015107;28;20310;-63
2022/04/18 12:16:41;;;;;;;21.95;14.60;;;28.30;99.90;;;;;;5015416;28;20104;-64
2022/04/18 12:19:12;;;;;;;22.85;14.90;;;28.20;99.90;;;;;;5012925;28;20419;-63
2022/04/18 12:21:39;;;;;;;22.33;14.60;;;28.20;99.90;;;;;;5014592;28;20026;-63
2022/04/18 12:24:07;;;;;;;25.17;16.08;;;28.20;99.90;;;;;;5013052;28;20033;-63
2022/04/18 12:26:34;;;;;;;20.02;16.30;;;28.20;99.90;;;;;;5014287;28;20478;-63
2022/04/18 12:29:05;;;;;;;21.45;16.13;;;28.30;99.90;;;;;;5009760;28;20335;-66
2022/04/18 12:31:32;;;;;;;26.40;15.98;;;28.20;99.90;;;;;;5010580;28;20025;-63
2022/04/18 12:33:59;;;;;;;25.15;14.90;;;28.20;99.90;;;;;;5013113;28;20022;-63
2022/04/18 12:36:33;;;;;;;16.27;12.60;;;28.20;99.90;;;;;;5014246;28;20041;-64
2022/04/18 12:39:01;;;;;;;19.38;13.57;;;28.30;99.90;;;;;;5012142;28;20030;-65
2022/04/18 12:41:38;;;;;;;17.35;12.45;;;28.20;99.90;;;;;;5008633;28;20057;-63
2022/04/18 12:44:20;;;;;;;18.13;14.52;;;28.10;99.90;;;;;;5012897;28;20072;-63
2022/04/18 12:46:46;;;;;;;;;;;28.10;99.90;;;;;;5012655;28;20034;-64
2022/04/18 12:49:13;;;;;;;19.67;12.60;;;28.10;99.90;;;;;;5008528;28;19914;-66
2022/04/18 12:51:42;;;;;;;18.55;13.15;;;28.00;99.90;;;;;;5013781;28;20026;-68
2022/04/18 12:54:20;;;;;;;23.42;13.35;;;27.90;99.90;;;;;;5014497;28;20025;-67
2022/04/18 12:56:48;;;;;;;20.80;13.18;;;27.90;99.90;;;;;;5014129;28;20037;-67
2022/04/18 12:59:23;;;;;;;24.90;12.98;;;27.80;99.90;;;;;;5008516;28;20033;-66
2022/04/18 13:01:50;;;;;;;25.05;14.55;;;27.80;99.90;;;;;;5013039;28;20104;-67